sensor_id;sensor_type;location;lat;lon;timestamp;P1;durP1;ratioP1;P2;durP2;ratioP2
23812;SDS011;12087;45.190;5.688;2022-08-21T00:05:02;0.50;;;0.50;;
23812;SDS011;12087;45.190;5.688;2022-08-21T00:10:25;3.25;;;0.60;;
23812;SDS011;12087;45.190;5.688;2022-08-21T00:15:47;0.73;;;0.65;;
23812;SDS011;12087;45.190;5.688;2022-08-21T00:21:12;2.40;;;0.50;;
23812;SDS011;12087;45.190;5.688;2022-08-21T00:26:34;1.65;;;0.80;;
23812;SDS011;12087;45.190;5.688;2022-08-21T00:31:57;1.23;;;0.52;;
23812;SDS011;12087;45.190;5.688;2022-08-21T00:37:21;0.65;;;0.50;;
23812;SDS011;12087;45.190;5.688;2022-08-21T00:42:44;1.27;;;0.70;;
23812;SDS011;12087;45.190;5.688;2022-08-21T00:48:07;0.85;;;0.70;;
23812;SDS011;12087;45.190;5.688;2022-08-21T00:53:30;2.28;;;0.52;;
23812;SDS011;12087;45.190;5.688;2022-08-21T00:58:54;3.22;;;0.65;;
23812;SDS011;12087;45.190;5.688;2022-08-21T01:04:19;0.80;;;0.57;;
23812;SDS011;12087;45.190;5.688;2022-08-21T01:09:43;0.95;;;0.55;;
23812;SDS011;12087;45.190;5.688;2022-08-21T01:15:07;0.82;;;0.70;;
23812;SDS011;12087;45.190;5.688;2022-08-21T01:20:30;1.05;;;0.70;;
23812;SDS011;12087;45.190;5.688;2022-08-21T01:25:54;3.80;;;0.70;;
23812;SDS011;12087;45.190;5.688;2022-08-21T01:31:17;5.65;;;0.77;;
23812;SDS011;12087;45.190;5.688;2022-08-21T01:36:42;3.22;;;0.90;;
23812;SDS011;12087;45.190;5.688;2022-08-21T01:42:06;3.03;;;0.75;;
23812;SDS011;12087;45.190;5.688;2022-08-21T01:47:29;3.75;;;1.13;;
23812;SDS011;12087;45.190;5.688;2022-08-21T01:52:51;1.85;;;0.90;;
23812;SDS011;12087;45.190;5.688;2022-08-21T01:58:15;1.75;;;0.70;;
23812;SDS011;12087;45.190;5.688;2022-08-21T02:03:37;4.78;;;0.82;;
23812;SDS011;12087;45.190;5.688;2022-08-21T02:09:00;8.23;;;1.30;;
23812;SDS011;12087;45.190;5.688;2022-08-21T02:14:24;2.80;;;0.88;;
23812;SDS011;12087;45.190;5.688;2022-08-21T02:19:47;6.28;;;1.50;;
23812;SDS011;12087;45.190;5.688;2022-08-21T02:25:09;4.30;;;1.10;;
23812;SDS011;12087;45.190;5.688;2022-08-21T02:30:34;3.00;;;1.13;;
23812;SDS011;12087;45.190;5.688;2022-08-21T02:35:59;1.52;;;1.05;;
23812;SDS011;12087;45.190;5.688;2022-08-21T02:41:23;2.17;;;0.80;;
23812;SDS011;12087;45.190;5.688;2022-08-21T02:46:47;4.45;;;0.80;;
23812;SDS011;12087;45.190;5.688;2022-08-21T02:52:09;3.03;;;1.02;;
23812;SDS011;12087;45.190;5.688;2022-08-21T02:57:32;2.97;;;0.80;;
23812;SDS011;12087;45.190;5.688;2022-08-21T03:02:55;0.90;;;0.80;;
23812;SDS011;12087;45.190;5.688;2022-08-21T03:08:18;2.33;;;0.70;;
23812;SDS011;12087;45.190;5.688;2022-08-21T03:13:42;1.33;;;1.23;;
23812;SDS011;12087;45.190;5.688;2022-08-21T03:19:05;4.43;;;0.98;;
23812;SDS011;12087;45.190;5.688;2022-08-21T03:24:28;3.72;;;0.90;;
23812;SDS011;12087;45.190;5.688;2022-08-21T03:29:50;1.95;;;1.00;;
23812;SDS011;12087;45.190;5.688;2022-08-21T03:35:14;6.72;;;1.83;;
23812;SDS011;12087;45.190;5.688;2022-08-21T03:40:36;8.50;;;1.38;;
23812;SDS011;12087;45.190;5.688;2022-08-21T03:45:58;0.77;;;0.77;;
23812;SDS011;12087;45.190;5.688;2022-08-21T03:51:24;1.13;;;0.93;;
23812;SDS011;12087;45.190;5.688;2022-08-21T03:56:47;0.90;;;0.75;;
23812;SDS011;12087;45.190;5.688;2022-08-21T04:02:09;4.28;;;0.82;;
23812;SDS011;12087;45.190;5.688;2022-08-21T04:07:35;2.17;;;0.70;;
23812;SDS011;12087;45.190;5.688;2022-08-21T04:12:57;2.83;;;1.00;;
23812;SDS011;12087;45.190;5.688;2022-08-21T04:18:19;1.70;;;0.70;;
23812;SDS011;12087;45.190;5.688;2022-08-21T04:23:43;2.17;;;1.10;;
23812;SDS011;12087;45.190;5.688;2022-08-21T04:29:05;1.95;;;1.33;;
23812;SDS011;12087;45.190;5.688;2022-08-21T04:34:27;4.78;;;1.42;;
23812;SDS011;12087;45.190;5.688;2022-08-21T04:39:51;3.92;;;0.88;;
23812;SDS011;12087;45.190;5.688;2022-08-21T04:45:18;2.47;;;0.75;;
23812;SDS011;12087;45.190;5.688;2022-08-21T04:50:43;2.35;;;1.00;;
23812;SDS011;12087;45.190;5.688;2022-08-21T04:56:10;3.00;;;1.17;;
23812;SDS011;12087;45.190;5.688;2022-08-21T05:01:35;1.92;;;1.05;;
23812;SDS011;12087;45.190;5.688;2022-08-21T05:07:00;2.13;;;1.10;;
23812;SDS011;12087;45.190;5.688;2022-08-21T05:12:27;1.83;;;1.35;;
23812;SDS011;12087;45.190;5.688;2022-08-21T05:17:50;3.33;;;0.95;;
23812;SDS011;12087;45.190;5.688;2022-08-21T05:23:12;2.28;;;1.20;;
23812;SDS011;12087;45.190;5.688;2022-08-21T05:28:37;2.47;;;1.10;;
23812;SDS011;12087;45.190;5.688;2022-08-21T05:33:59;1.38;;;0.98;;
23812;SDS011;12087;45.190;5.688;2022-08-21T05:39:21;3.88;;;1.13;;
23812;SDS011;12087;45.190;5.688;2022-08-21T05:44:45;3.90;;;1.40;;
23812;SDS011;12087;45.190;5.688;2022-08-21T05:50:07;2.78;;;1.10;;
23812;SDS011;12087;45.190;5.688;2022-08-21T05:55:30;2.42;;;1.20;;
23812;SDS011;12087;45.190;5.688;2022-08-21T06:00:53;1.35;;;1.00;;
23812;SDS011;12087;45.190;5.688;2022-08-21T06:06:16;1.88;;;1.30;;
23812;SDS011;12087;45.190;5.688;2022-08-21T06:11:38;2.22;;;1.30;;
23812;SDS011;12087;45.190;5.688;2022-08-21T06:17:03;2.50;;;1.50;;
23812;SDS011;12087;45.190;5.688;2022-08-21T06:22:25;1.75;;;1.20;;
23812;SDS011;12087;45.190;5.688;2022-08-21T06:27:48;1.38;;;1.27;;
23812;SDS011;12087;45.190;5.688;2022-08-21T06:33:12;3.58;;;1.48;;
23812;SDS011;12087;45.190;5.688;2022-08-21T06:38:35;2.85;;;1.35;;
23812;SDS011;12087;45.190;5.688;2022-08-21T06:43:57;5.50;;;1.40;;
23812;SDS011;12087;45.190;5.688;2022-08-21T06:49:21;2.22;;;1.30;;
23812;SDS011;12087;45.190;5.688;2022-08-21T06:54:43;4.13;;;1.25;;
23812;SDS011;12087;45.190;5.688;2022-08-21T07:00:06;3.20;;;1.67;;
23812;SDS011;12087;45.190;5.688;2022-08-21T07:05:31;7.90;;;2.20;;
23812;SDS011;12087;45.190;5.688;2022-08-21T07:10:54;5.40;;;1.80;;
23812;SDS011;12087;45.190;5.688;2022-08-21T07:16:19;5.18;;;1.65;;
23812;SDS011;12087;45.190;5.688;2022-08-21T07:21:43;3.10;;;1.80;;
23812;SDS011;12087;45.190;5.688;2022-08-21T07:27:05;2.08;;;1.30;;
23812;SDS011;12087;45.190;5.688;2022-08-21T07:32:27;5.93;;;1.40;;
23812;SDS011;12087;45.190;5.688;2022-08-21T07:37:51;3.75;;;1.42;;
23812;SDS011;12087;45.190;5.688;2022-08-21T07:43:13;2.55;;;1.40;;
23812;SDS011;12087;45.190;5.688;2022-08-21T07:48:37;2.55;;;1.30;;
23812;SDS011;12087;45.190;5.688;2022-08-21T07:54:03;8.43;;;1.60;;
23812;SDS011;12087;45.190;5.688;2022-08-21T07:59:25;5.22;;;2.13;;
23812;SDS011;12087;45.190;5.688;2022-08-21T08:04:48;2.85;;;1.75;;
23812;SDS011;12087;45.190;5.688;2022-08-21T08:10:12;2.47;;;1.42;;
23812;SDS011;12087;45.190;5.688;2022-08-21T08:15:35;1.73;;;1.42;;
23812;SDS011;12087;45.190;5.688;2022-08-21T08:20:58;1.58;;;1.13;;
23812;SDS011;12087;45.190;5.688;2022-08-21T08:26:21;2.28;;;1.30;;
23812;SDS011;12087;45.190;5.688;2022-08-21T08:31:44;2.00;;;1.00;;
23812;SDS011;12087;45.190;5.688;2022-08-21T08:37:06;2.70;;;1.13;;
23812;SDS011;12087;45.190;5.688;2022-08-21T08:42:33;2.28;;;1.42;;
23812;SDS011;12087;45.190;5.688;2022-08-21T08:48:00;4.13;;;1.30;;
23812;SDS011;12087;45.190;5.688;2022-08-21T08:53:28;1.33;;;0.90;;
23812;SDS011;12087;45.190;5.688;2022-08-21T08:58:56;1.85;;;1.10;;
23812;SDS011;12087;45.190;5.688;2022-08-21T09:04:23;1.90;;;1.05;;
23812;SDS011;12087;45.190;5.688;2022-08-21T09:09:52;2.10;;;1.20;;
23812;SDS011;12087;45.190;5.688;2022-08-21T09:15:27;4.25;;;1.27;;
23812;SDS011;12087;45.190;5.688;2022-08-21T09:20:57;5.28;;;1.10;;
23812;SDS011;12087;45.190;5.688;2022-08-21T09:26:31;2.47;;;1.45;;
23812;SDS011;12087;45.190;5.688;2022-08-21T09:32:09;3.40;;;1.40;;
23812;SDS011;12087;45.190;5.688;2022-08-21T09:37:46;2.58;;;1.23;;
23812;SDS011;12087;45.190;5.688;2022-08-21T09:43:16;2.70;;;1.17;;
23812;SDS011;12087;45.190;5.688;2022-08-21T09:48:43;4.82;;;0.98;;
23812;SDS011;12087;45.190;5.688;2022-08-21T09:54:12;3.85;;;1.38;;
23812;SDS011;12087;45.190;5.688;2022-08-21T09:59:40;4.88;;;1.73;;
23812;SDS011;12087;45.190;5.688;2022-08-21T10:05:08;1.70;;;1.15;;
23812;SDS011;12087;45.190;5.688;2022-08-21T10:10:38;2.35;;;1.40;;
23812;SDS011;12087;45.190;5.688;2022-08-21T10:16:04;1.77;;;1.23;;
23812;SDS011;12087;45.190;5.688;2022-08-21T10:21:36;1.20;;;1.10;;
23812;SDS011;12087;45.190;5.688;2022-08-21T10:27:06;3.33;;;1.15;;
23812;SDS011;12087;45.190;5.688;2022-08-21T10:32:54;2.22;;;2.03;;
23812;SDS011;12087;45.190;5.688;2022-08-21T10:38:41;4.03;;;1.17;;
23812;SDS011;12087;45.190;5.688;2022-08-21T10:44:27;3.85;;;0.85;;
23812;SDS011;12087;45.190;5.688;2022-08-21T10:49:57;9.13;;;1.23;;
23812;SDS011;12087;45.190;5.688;2022-08-21T10:55:32;2.20;;;1.98;;
23812;SDS011;12087;45.190;5.688;2022-08-21T11:00:58;2.40;;;2.20;;
23812;SDS011;12087;45.190;5.688;2022-08-21T11:06:29;1.90;;;1.05;;
23812;SDS011;12087;45.190;5.688;2022-08-21T11:11:56;2.13;;;1.77;;
23812;SDS011;12087;45.190;5.688;2022-08-21T11:17:24;3.95;;;3.10;;
23812;SDS011;12087;45.190;5.688;2022-08-21T11:28:20;3.42;;;0.90;;
23812;SDS011;12087;45.190;5.688;2022-08-21T11:33:48;1.10;;;0.68;;
23812;SDS011;12087;45.190;5.688;2022-08-21T11:39:22;5.15;;;0.80;;
23812;SDS011;12087;45.190;5.688;2022-08-21T11:44:53;1.08;;;0.75;;
23812;SDS011;12087;45.190;5.688;2022-08-21T11:50:27;5.20;;;0.90;;
23812;SDS011;12087;45.190;5.688;2022-08-21T11:55:52;2.30;;;0.70;;
23812;SDS011;12087;45.190;5.688;2022-08-21T12:01:22;2.90;;;0.80;;
23812;SDS011;12087;45.190;5.688;2022-08-21T12:06:47;1.38;;;0.80;;
23812;SDS011;12087;45.190;5.688;2022-08-21T12:12:10;1.30;;;0.77;;
23812;SDS011;12087;45.190;5.688;2022-08-21T12:17:36;1.13;;;0.68;;
23812;SDS011;12087;45.190;5.688;2022-08-21T12:23:03;4.03;;;0.70;;
23812;SDS011;12087;45.190;5.688;2022-08-21T12:28:35;1.45;;;0.73;;
23812;SDS011;12087;45.190;5.688;2022-08-21T12:34:01;2.20;;;0.82;;
23812;SDS011;12087;45.190;5.688;2022-08-21T12:39:27;1.17;;;0.60;;
23812;SDS011;12087;45.190;5.688;2022-08-21T12:44:53;1.58;;;0.77;;
23812;SDS011;12087;45.190;5.688;2022-08-21T12:50:21;2.78;;;1.52;;
23812;SDS011;12087;45.190;5.688;2022-08-21T12:55:50;2.55;;;0.70;;
23812;SDS011;12087;45.190;5.688;2022-08-21T13:01:13;1.55;;;0.70;;
23812;SDS011;12087;45.190;5.688;2022-08-21T13:06:43;2.37;;;1.10;;
23812;SDS011;12087;45.190;5.688;2022-08-21T13:12:08;5.00;;;0.75;;
23812;SDS011;12087;45.190;5.688;2022-08-21T13:17:31;2.75;;;1.02;;
23812;SDS011;12087;45.190;5.688;2022-08-21T13:22:59;0.85;;;0.68;;
23812;SDS011;12087;45.190;5.688;2022-08-21T13:28:22;0.90;;;0.52;;
23812;SDS011;12087;45.190;5.688;2022-08-21T13:33:44;2.55;;;1.55;;
23812;SDS011;12087;45.190;5.688;2022-08-21T13:39:09;2.78;;;0.95;;
23812;SDS011;12087;45.190;5.688;2022-08-21T13:44:34;2.25;;;0.68;;
23812;SDS011;12087;45.190;5.688;2022-08-21T13:49:58;3.05;;;0.85;;
23812;SDS011;12087;45.190;5.688;2022-08-21T13:55:23;4.50;;;0.80;;
23812;SDS011;12087;45.190;5.688;2022-08-21T14:00:46;0.90;;;0.57;;
23812;SDS011;12087;45.190;5.688;2022-08-21T14:06:11;4.55;;;0.90;;
23812;SDS011;12087;45.190;5.688;2022-08-21T14:11:37;5.25;;;0.90;;
23812;SDS011;12087;45.190;5.688;2022-08-21T14:17:01;2.72;;;1.10;;
23812;SDS011;12087;45.190;5.688;2022-08-21T14:22:29;5.18;;;0.88;;
23812;SDS011;12087;45.190;5.688;2022-08-21T14:27:55;5.73;;;0.70;;
23812;SDS011;12087;45.190;5.688;2022-08-21T14:33:22;2.67;;;0.82;;
23812;SDS011;12087;45.190;5.688;2022-08-21T14:38:47;1.50;;;0.70;;
23812;SDS011;12087;45.190;5.688;2022-08-21T14:44:11;2.75;;;0.88;;
23812;SDS011;12087;45.190;5.688;2022-08-21T14:49:34;0.88;;;0.57;;
23812;SDS011;12087;45.190;5.688;2022-08-21T14:54:56;1.00;;;0.88;;
23812;SDS011;12087;45.190;5.688;2022-08-21T15:00:20;5.05;;;3.42;;
23812;SDS011;12087;45.190;5.688;2022-08-21T15:05:45;4.32;;;1.23;;
23812;SDS011;12087;45.190;5.688;2022-08-21T15:11:16;2.03;;;1.05;;
23812;SDS011;12087;45.190;5.688;2022-08-21T15:16:43;4.80;;;1.23;;
23812;SDS011;12087;45.190;5.688;2022-08-21T15:22:05;3.92;;;0.95;;
23812;SDS011;12087;45.190;5.688;2022-08-21T15:27:28;6.95;;;1.63;;
23812;SDS011;12087;45.190;5.688;2022-08-21T15:32:52;4.32;;;1.00;;
23812;SDS011;12087;45.190;5.688;2022-08-21T15:38:15;3.13;;;1.40;;
23812;SDS011;12087;45.190;5.688;2022-08-21T15:43:39;4.07;;;1.48;;
23812;SDS011;12087;45.190;5.688;2022-08-21T15:49:06;7.90;;;1.20;;
23812;SDS011;12087;45.190;5.688;2022-08-21T15:54:29;3.20;;;1.00;;
23812;SDS011;12087;45.190;5.688;2022-08-21T15:59:52;3.65;;;1.15;;
23812;SDS011;12087;45.190;5.688;2022-08-21T16:05:18;1.33;;;0.85;;
23812;SDS011;12087;45.190;5.688;2022-08-21T16:10:42;4.07;;;1.60;;
23812;SDS011;12087;45.190;5.688;2022-08-21T16:16:04;3.63;;;1.20;;
23812;SDS011;12087;45.190;5.688;2022-08-21T16:21:28;12.30;;;1.92;;
23812;SDS011;12087;45.190;5.688;2022-08-21T16:26:51;10.85;;;1.42;;
23812;SDS011;12087;45.190;5.688;2022-08-21T16:32:13;4.88;;;1.23;;
23812;SDS011;12087;45.190;5.688;2022-08-21T16:37:38;6.60;;;2.75;;
23812;SDS011;12087;45.190;5.688;2022-08-21T16:43:00;4.20;;;1.30;;
23812;SDS011;12087;45.190;5.688;2022-08-21T16:48:23;6.18;;;1.70;;
23812;SDS011;12087;45.190;5.688;2022-08-21T16:53:47;2.90;;;1.33;;
23812;SDS011;12087;45.190;5.688;2022-08-21T16:59:09;5.85;;;1.55;;
23812;SDS011;12087;45.190;5.688;2022-08-21T17:04:33;2.85;;;1.23;;
23812;SDS011;12087;45.190;5.688;2022-08-21T17:09:56;4.28;;;1.48;;
23812;SDS011;12087;45.190;5.688;2022-08-21T17:15:20;2.83;;;0.90;;
23812;SDS011;12087;45.190;5.688;2022-08-21T17:20:45;2.55;;;1.17;;
23812;SDS011;12087;45.190;5.688;2022-08-21T17:26:09;2.38;;;1.48;;
23812;SDS011;12087;45.190;5.688;2022-08-21T17:31:31;4.35;;;1.73;;
23812;SDS011;12087;45.190;5.688;2022-08-21T17:36:53;3.75;;;1.48;;
23812;SDS011;12087;45.190;5.688;2022-08-21T17:42:17;7.53;;;1.35;;
23812;SDS011;12087;45.190;5.688;2022-08-21T17:47:41;4.90;;;1.73;;
23812;SDS011;12087;45.190;5.688;2022-08-21T17:53:04;3.47;;;1.33;;
23812;SDS011;12087;45.190;5.688;2022-08-21T17:58:27;7.28;;;2.17;;
23812;SDS011;12087;45.190;5.688;2022-08-21T18:03:50;2.78;;;1.45;;
23812;SDS011;12087;45.190;5.688;2022-08-21T18:09:12;4.03;;;1.83;;
23812;SDS011;12087;45.190;5.688;2022-08-21T18:14:36;4.05;;;1.85;;
23812;SDS011;12087;45.190;5.688;2022-08-21T18:20:00;3.28;;;1.73;;
23812;SDS011;12087;45.190;5.688;2022-08-21T18:25:24;7.22;;;1.70;;
23812;SDS011;12087;45.190;5.688;2022-08-21T18:30:49;5.97;;;2.40;;
23812;SDS011;12087;45.190;5.688;2022-08-21T18:36:14;7.15;;;2.13;;
23812;SDS011;12087;45.190;5.688;2022-08-21T18:41:36;3.35;;;1.65;;
23812;SDS011;12087;45.190;5.688;2022-08-21T18:47:03;10.85;;;2.30;;
23812;SDS011;12087;45.190;5.688;2022-08-21T18:52:26;6.00;;;1.90;;
23812;SDS011;12087;45.190;5.688;2022-08-21T18:57:50;6.22;;;2.28;;
23812;SDS011;12087;45.190;5.688;2022-08-21T19:03:15;6.28;;;1.45;;
23812;SDS011;12087;45.190;5.688;2022-08-21T19:08:38;4.57;;;2.45;;
23812;SDS011;12087;45.190;5.688;2022-08-21T19:14:02;6.53;;;2.45;;
23812;SDS011;12087;45.190;5.688;2022-08-21T19:19:27;5.68;;;2.85;;
23812;SDS011;12087;45.190;5.688;2022-08-21T19:24:49;7.40;;;2.22;;
23812;SDS011;12087;45.190;5.688;2022-08-21T19:30:11;11.13;;;2.78;;
23812;SDS011;12087;45.190;5.688;2022-08-21T19:35:35;4.70;;;2.17;;
23812;SDS011;12087;45.190;5.688;2022-08-21T19:40:57;4.80;;;2.35;;
23812;SDS011;12087;45.190;5.688;2022-08-21T19:46:21;2.55;;;1.77;;
23812;SDS011;12087;45.190;5.688;2022-08-21T19:51:48;6.45;;;2.40;;
23812;SDS011;12087;45.190;5.688;2022-08-21T19:57:10;5.57;;;2.70;;
23812;SDS011;12087;45.190;5.688;2022-08-21T20:02:33;4.80;;;2.22;;
23812;SDS011;12087;45.190;5.688;2022-08-21T20:07:57;7.50;;;3.50;;
23812;SDS011;12087;45.190;5.688;2022-08-21T20:13:33;7.70;;;2.30;;
23812;SDS011;12087;45.190;5.688;2022-08-21T20:19:05;3.78;;;1.80;;
23812;SDS011;12087;45.190;5.688;2022-08-21T20:24:29;3.22;;;1.90;;
23812;SDS011;12087;45.190;5.688;2022-08-21T20:29:52;3.10;;;1.67;;
23812;SDS011;12087;45.190;5.688;2022-08-21T20:35:14;5.47;;;2.25;;
23812;SDS011;12087;45.190;5.688;2022-08-21T20:40:38;6.57;;;2.35;;
23812;SDS011;12087;45.190;5.688;2022-08-21T20:46:02;4.47;;;1.88;;
23812;SDS011;12087;45.190;5.688;2022-08-21T20:51:27;8.65;;;2.15;;
23812;SDS011;12087;45.190;5.688;2022-08-21T20:56:56;7.68;;;2.40;;
23812;SDS011;12087;45.190;5.688;2022-08-21T21:02:31;5.18;;;2.20;;
23812;SDS011;12087;45.190;5.688;2022-08-21T21:08:04;2.75;;;1.67;;
23812;SDS011;12087;45.190;5.688;2022-08-21T21:13:32;5.55;;;2.20;;
23812;SDS011;12087;45.190;5.688;2022-08-21T21:18:57;6.88;;;2.83;;
23812;SDS011;12087;45.190;5.688;2022-08-21T21:24:25;8.27;;;2.53;;
23812;SDS011;12087;45.190;5.688;2022-08-21T21:29:57;6.70;;;2.72;;
23812;SDS011;12087;45.190;5.688;2022-08-21T21:35:24;10.57;;;2.78;;
23812;SDS011;12087;45.190;5.688;2022-08-21T21:40:55;5.93;;;2.45;;
23812;SDS011;12087;45.190;5.688;2022-08-21T21:46:32;7.55;;;2.97;;
23812;SDS011;12087;45.190;5.688;2022-08-21T21:52:04;9.18;;;2.80;;
23812;SDS011;12087;45.190;5.688;2022-08-21T21:57:40;3.75;;;2.85;;
23812;SDS011;12087;45.190;5.688;2022-08-21T22:03:44;7.57;;;2.42;;
23812;SDS011;12087;45.190;5.688;2022-08-21T22:09:25;6.53;;;2.65;;
23812;SDS011;12087;45.190;5.688;2022-08-21T22:20:41;9.35;;;3.20;;
23812;SDS011;12087;45.190;5.688;2022-08-21T22:26:13;6.18;;;2.50;;
23812;SDS011;12087;45.190;5.688;2022-08-21T22:32:02;6.60;;;2.83;;
23812;SDS011;12087;45.190;5.688;2022-08-21T22:37:33;8.07;;;2.60;;
23812;SDS011;12087;45.190;5.688;2022-08-21T22:48:20;6.18;;;2.45;;
23812;SDS011;12087;45.190;5.688;2022-08-21T22:53:46;5.60;;;2.45;;
23812;SDS011;12087;45.190;5.688;2022-08-21T22:59:20;6.22;;;2.72;;
23812;SDS011;12087;45.190;5.688;2022-08-21T23:04:48;10.05;;;2.63;;
23812;SDS011;12087;45.190;5.688;2022-08-21T23:10:17;8.40;;;2.33;;
23812;SDS011;12087;45.190;5.688;2022-08-21T23:21:07;5.90;;;2.50;;
23812;SDS011;12087;45.190;5.688;2022-08-21T23:26:38;6.75;;;3.10;;
23812;SDS011;12087;45.190;5.688;2022-08-21T23:32:10;7.90;;;2.50;;
23812;SDS011;12087;45.190;5.688;2022-08-21T23:37:45;5.07;;;2.10;;
23812;SDS011;12087;45.190;5.688;2022-08-21T23:43:22;6.95;;;2.58;;
23812;SDS011;12087;45.190;5.688;2022-08-21T23:49:06;8.15;;;2.40;;
23812;SDS011;12087;45.190;5.688;2022-08-21T23:54:44;7.07;;;2.40;;
